sensor_id;sensor_type;location;lat;lon;timestamp;P1;durP1;ratioP1;P2;durP2;ratioP2
9188;SDS011;34313;50.780;6.084;2023-04-24T00:00:15;4.17;;;2.40;;
9188;SDS011;34313;50.780;6.084;2023-04-24T00:02:42;2.77;;;2.03;;
9188;SDS011;34313;50.780;6.084;2023-04-24T00:05:11;2.67;;;1.83;;
9188;SDS011;34313;50.780;6.084;2023-04-24T00:07:37;3.93;;;2.37;;
9188;SDS011;34313;50.780;6.084;2023-04-24T00:10:03;4.67;;;2.60;;
9188;SDS011;34313;50.780;6.084;2023-04-24T00:12:28;2.63;;;2.40;;
9188;SDS011;34313;50.780;6.084;2023-04-24T00:14:54;5.10;;;3.03;;
9188;SDS011;34313;50.780;6.084;2023-04-24T00:17:20;5.90;;;3.50;;
9188;SDS011;34313;50.780;6.084;2023-04-24T00:19:48;6.20;;;3.90;;
9188;SDS011;34313;50.780;6.084;2023-04-24T00:22:16;4.70;;;3.60;;
9188;SDS011;34313;50.780;6.084;2023-04-24T00:24:42;5.40;;;4.43;;
9188;SDS011;34313;50.780;6.084;2023-04-24T00:27:07;8.30;;;5.30;;
9188;SDS011;34313;50.780;6.084;2023-04-24T00:29:32;6.03;;;4.57;;
9188;SDS011;34313;50.780;6.084;2023-04-24T00:31:59;7.20;;;5.20;;
9188;SDS011;34313;50.780;6.084;2023-04-24T00:34:24;6.97;;;5.07;;
9188;SDS011;34313;50.780;6.084;2023-04-24T00:36:49;9.83;;;5.77;;
9188;SDS011;34313;50.780;6.084;2023-04-24T00:39:17;7.33;;;4.80;;
9188;SDS011;34313;50.780;6.084;2023-04-24T00:41:46;7.93;;;5.87;;
9188;SDS011;34313;50.780;6.084;2023-04-24T00:44:12;8.87;;;4.97;;
9188;SDS011;34313;50.780;6.084;2023-04-24T00:46:38;9.60;;;5.07;;
9188;SDS011;34313;50.780;6.084;2023-04-24T00:49:04;14.43;;;6.23;;
9188;SDS011;34313;50.780;6.084;2023-04-24T00:51:31;7.70;;;5.77;;
9188;SDS011;34313;50.780;6.084;2023-04-24T00:53:57;9.23;;;6.47;;
9188;SDS011;34313;50.780;6.084;2023-04-24T00:56:23;11.13;;;7.37;;
9188;SDS011;34313;50.780;6.084;2023-04-24T00:58:49;16.87;;;7.23;;
9188;SDS011;34313;50.780;6.084;2023-04-24T01:01:14;11.20;;;6.40;;
9188;SDS011;34313;50.780;6.084;2023-04-24T01:03:40;12.97;;;7.17;;
9188;SDS011;34313;50.780;6.084;2023-04-24T01:06:05;10.43;;;6.97;;
9188;SDS011;34313;50.780;6.084;2023-04-24T01:08:31;14.50;;;6.90;;
9188;SDS011;34313;50.780;6.084;2023-04-24T01:10:59;9.70;;;7.30;;
9188;SDS011;34313;50.780;6.084;2023-04-24T01:13:28;11.10;;;7.27;;
9188;SDS011;34313;50.780;6.084;2023-04-24T01:15:54;9.60;;;6.67;;
9188;SDS011;34313;50.780;6.084;2023-04-24T01:18:19;13.73;;;7.50;;
9188;SDS011;34313;50.780;6.084;2023-04-24T01:20:46;8.30;;;6.60;;
9188;SDS011;34313;50.780;6.084;2023-04-24T01:23:12;12.73;;;6.83;;
9188;SDS011;34313;50.780;6.084;2023-04-24T01:25:37;11.00;;;7.43;;
9188;SDS011;34313;50.780;6.084;2023-04-24T01:28:03;8.20;;;6.13;;
9188;SDS011;34313;50.780;6.084;2023-04-24T01:30:29;16.20;;;6.60;;
9188;SDS011;34313;50.780;6.084;2023-04-24T01:32:54;10.50;;;6.73;;
9188;SDS011;34313;50.780;6.084;2023-04-24T01:35:20;9.40;;;6.97;;
9188;SDS011;34313;50.780;6.084;2023-04-24T01:37:45;14.00;;;6.87;;
9188;SDS011;34313;50.780;6.084;2023-04-24T01:40:11;11.50;;;6.60;;
9188;SDS011;34313;50.780;6.084;2023-04-24T01:42:36;14.23;;;7.43;;
9188;SDS011;34313;50.780;6.084;2023-04-24T01:45:03;12.20;;;6.00;;
9188;SDS011;34313;50.780;6.084;2023-04-24T01:47:30;14.10;;;7.03;;
9188;SDS011;34313;50.780;6.084;2023-04-24T01:49:56;21.73;;;7.60;;
9188;SDS011;34313;50.780;6.084;2023-04-24T01:52:21;10.80;;;7.13;;
9188;SDS011;34313;50.780;6.084;2023-04-24T01:54:47;10.03;;;7.03;;
9188;SDS011;34313;50.780;6.084;2023-04-24T01:57:13;10.77;;;7.10;;
9188;SDS011;34313;50.780;6.084;2023-04-24T01:59:39;9.30;;;7.13;;
9188;SDS011;34313;50.780;6.084;2023-04-24T02:02:05;7.07;;;6.37;;
9188;SDS011;34313;50.780;6.084;2023-04-24T02:04:30;13.70;;;7.20;;
9188;SDS011;34313;50.780;6.084;2023-04-24T02:06:56;12.30;;;8.07;;
9188;SDS011;34313;50.780;6.084;2023-04-24T02:09:21;7.13;;;6.40;;
9188;SDS011;34313;50.780;6.084;2023-04-24T02:11:46;10.90;;;6.27;;
9188;SDS011;34313;50.780;6.084;2023-04-24T02:14:12;12.60;;;7.27;;
9188;SDS011;34313;50.780;6.084;2023-04-24T02:16:38;11.97;;;7.90;;
9188;SDS011;34313;50.780;6.084;2023-04-24T02:19:04;8.30;;;7.30;;
9188;SDS011;34313;50.780;6.084;2023-04-24T02:21:29;10.03;;;6.77;;
9188;SDS011;34313;50.780;6.084;2023-04-24T02:23:56;14.63;;;8.27;;
9188;SDS011;34313;50.780;6.084;2023-04-24T02:26:21;9.30;;;7.13;;
9188;SDS011;34313;50.780;6.084;2023-04-24T02:28:47;14.33;;;8.73;;
9188;SDS011;34313;50.780;6.084;2023-04-24T02:31:12;10.30;;;7.20;;
9188;SDS011;34313;50.780;6.084;2023-04-24T02:33:37;13.03;;;7.63;;
9188;SDS011;34313;50.780;6.084;2023-04-24T02:36:03;12.67;;;8.30;;
9188;SDS011;34313;50.780;6.084;2023-04-24T02:38:28;12.93;;;7.70;;
9188;SDS011;34313;50.780;6.084;2023-04-24T02:40:54;12.97;;;8.30;;
9188;SDS011;34313;50.780;6.084;2023-04-24T02:43:19;14.63;;;8.50;;
9188;SDS011;34313;50.780;6.084;2023-04-24T02:45:45;14.00;;;9.00;;
9188;SDS011;34313;50.780;6.084;2023-04-24T02:48:10;13.47;;;8.40;;
9188;SDS011;34313;50.780;6.084;2023-04-24T02:50:36;12.07;;;8.37;;
9188;SDS011;34313;50.780;6.084;2023-04-24T02:53:01;12.10;;;8.40;;
9188;SDS011;34313;50.780;6.084;2023-04-24T02:55:26;12.20;;;8.37;;
9188;SDS011;34313;50.780;6.084;2023-04-24T02:57:52;12.07;;;7.90;;
9188;SDS011;34313;50.780;6.084;2023-04-24T03:00:17;17.50;;;8.63;;
9188;SDS011;34313;50.780;6.084;2023-04-24T03:02:42;14.27;;;8.77;;
9188;SDS011;34313;50.780;6.084;2023-04-24T03:05:08;8.83;;;7.63;;
9188;SDS011;34313;50.780;6.084;2023-04-24T03:07:34;14.23;;;7.80;;
9188;SDS011;34313;50.780;6.084;2023-04-24T03:09:59;10.90;;;7.20;;
9188;SDS011;34313;50.780;6.084;2023-04-24T03:12:25;14.93;;;8.20;;
9188;SDS011;34313;50.780;6.084;2023-04-24T03:14:50;10.67;;;7.63;;
9188;SDS011;34313;50.780;6.084;2023-04-24T03:17:15;13.10;;;8.60;;
9188;SDS011;34313;50.780;6.084;2023-04-24T03:19:41;13.50;;;7.53;;
9188;SDS011;34313;50.780;6.084;2023-04-24T03:22:06;14.33;;;7.90;;
9188;SDS011;34313;50.780;6.084;2023-04-24T03:24:34;13.00;;;8.70;;
9188;SDS011;34313;50.780;6.084;2023-04-24T03:26:59;11.17;;;7.80;;
9188;SDS011;34313;50.780;6.084;2023-04-24T03:29:25;10.80;;;7.60;;
9188;SDS011;34313;50.780;6.084;2023-04-24T03:31:50;14.20;;;7.20;;
9188;SDS011;34313;50.780;6.084;2023-04-24T03:34:15;10.33;;;7.13;;
9188;SDS011;34313;50.780;6.084;2023-04-24T03:36:41;11.53;;;7.50;;
9188;SDS011;34313;50.780;6.084;2023-04-24T03:39:06;18.80;;;7.33;;
9188;SDS011;34313;50.780;6.084;2023-04-24T03:41:32;9.47;;;6.97;;
9188;SDS011;34313;50.780;6.084;2023-04-24T03:43:57;8.93;;;7.37;;
9188;SDS011;34313;50.780;6.084;2023-04-24T03:46:22;9.70;;;6.87;;
9188;SDS011;34313;50.780;6.084;2023-04-24T03:48:47;13.20;;;8.20;;
9188;SDS011;34313;50.780;6.084;2023-04-24T03:51:13;12.50;;;7.33;;
9188;SDS011;34313;50.780;6.084;2023-04-24T03:53:38;11.83;;;7.90;;
9188;SDS011;34313;50.780;6.084;2023-04-24T03:56:03;12.33;;;7.50;;
9188;SDS011;34313;50.780;6.084;2023-04-24T03:58:29;15.10;;;7.50;;
9188;SDS011;34313;50.780;6.084;2023-04-24T04:00:54;9.77;;;7.50;;
9188;SDS011;34313;50.780;6.084;2023-04-24T04:03:21;12.80;;;7.80;;
9188;SDS011;34313;50.780;6.084;2023-04-24T04:05:47;11.70;;;7.30;;
9188;SDS011;34313;50.780;6.084;2023-04-24T04:08:12;12.63;;;8.20;;
9188;SDS011;34313;50.780;6.084;2023-04-24T04:10:37;13.17;;;8.57;;
9188;SDS011;34313;50.780;6.084;2023-04-24T04:13:03;14.33;;;8.13;;
9188;SDS011;34313;50.780;6.084;2023-04-24T04:15:28;17.40;;;8.73;;
9188;SDS011;34313;50.780;6.084;2023-04-24T04:17:53;11.20;;;8.80;;
9188;SDS011;34313;50.780;6.084;2023-04-24T04:20:19;13.47;;;9.37;;
9188;SDS011;34313;50.780;6.084;2023-04-24T04:22:44;13.47;;;8.80;;
9188;SDS011;34313;50.780;6.084;2023-04-24T04:25:09;12.30;;;9.03;;
9188;SDS011;34313;50.780;6.084;2023-04-24T04:27:36;18.73;;;8.50;;
9188;SDS011;34313;50.780;6.084;2023-04-24T04:30:02;16.03;;;9.07;;
9188;SDS011;34313;50.780;6.084;2023-04-24T04:32:31;13.73;;;8.83;;
9188;SDS011;34313;50.780;6.084;2023-04-24T04:34:58;13.73;;;10.07;;
9188;SDS011;34313;50.780;6.084;2023-04-24T04:37:28;15.60;;;9.57;;
9188;SDS011;34313;50.780;6.084;2023-04-24T04:39:56;19.40;;;10.27;;
9188;SDS011;34313;50.780;6.084;2023-04-24T04:42:23;13.83;;;8.93;;
9188;SDS011;34313;50.780;6.084;2023-04-24T04:44:49;17.10;;;9.40;;
9188;SDS011;34313;50.780;6.084;2023-04-24T04:47:15;16.30;;;9.50;;
9188;SDS011;34313;50.780;6.084;2023-04-24T04:49:41;15.20;;;9.70;;
9188;SDS011;34313;50.780;6.084;2023-04-24T04:52:06;12.77;;;9.40;;
9188;SDS011;34313;50.780;6.084;2023-04-24T04:54:32;16.80;;;9.87;;
9188;SDS011;34313;50.780;6.084;2023-04-24T04:56:57;15.93;;;8.47;;
9188;SDS011;34313;50.780;6.084;2023-04-24T04:59:22;12.60;;;8.30;;
9188;SDS011;34313;50.780;6.084;2023-04-24T05:01:48;11.50;;;8.43;;
9188;SDS011;34313;50.780;6.084;2023-04-24T05:04:13;18.47;;;8.60;;
9188;SDS011;34313;50.780;6.084;2023-04-24T05:06:39;12.63;;;7.80;;
9188;SDS011;34313;50.780;6.084;2023-04-24T05:09:04;10.47;;;6.90;;
9188;SDS011;34313;50.780;6.084;2023-04-24T05:11:29;8.07;;;6.77;;
9188;SDS011;34313;50.780;6.084;2023-04-24T05:13:55;9.50;;;6.70;;
9188;SDS011;34313;50.780;6.084;2023-04-24T05:16:20;8.77;;;6.40;;
9188;SDS011;34313;50.780;6.084;2023-04-24T05:18:46;9.43;;;5.73;;
9188;SDS011;34313;50.780;6.084;2023-04-24T05:21:11;6.10;;;4.80;;
9188;SDS011;34313;50.780;6.084;2023-04-24T05:23:37;7.53;;;5.27;;
9188;SDS011;34313;50.780;6.084;2023-04-24T05:26:02;9.33;;;5.00;;
9188;SDS011;34313;50.780;6.084;2023-04-24T05:28:27;6.20;;;5.10;;
9188;SDS011;34313;50.780;6.084;2023-04-24T05:30:53;6.00;;;4.67;;
9188;SDS011;34313;50.780;6.084;2023-04-24T05:33:20;6.13;;;5.00;;
9188;SDS011;34313;50.780;6.084;2023-04-24T05:35:45;6.60;;;5.20;;
9188;SDS011;34313;50.780;6.084;2023-04-24T05:38:12;10.87;;;5.40;;
9188;SDS011;34313;50.780;6.084;2023-04-24T05:40:38;8.23;;;5.10;;
9188;SDS011;34313;50.780;6.084;2023-04-24T05:43:03;7.93;;;5.70;;
9188;SDS011;34313;50.780;6.084;2023-04-24T05:45:28;11.33;;;6.70;;
9188;SDS011;34313;50.780;6.084;2023-04-24T05:47:54;9.93;;;5.10;;
9188;SDS011;34313;50.780;6.084;2023-04-24T05:50:20;7.17;;;4.80;;
9188;SDS011;34313;50.780;6.084;2023-04-24T05:52:45;6.40;;;4.73;;
9188;SDS011;34313;50.780;6.084;2023-04-24T05:55:11;6.63;;;5.07;;
9188;SDS011;34313;50.780;6.084;2023-04-24T05:57:36;7.40;;;5.30;;
9188;SDS011;34313;50.780;6.084;2023-04-24T06:00:02;6.27;;;5.63;;
9188;SDS011;34313;50.780;6.084;2023-04-24T06:02:29;10.67;;;6.57;;
9188;SDS011;34313;50.780;6.084;2023-04-24T06:04:57;9.70;;;5.40;;
9188;SDS011;34313;50.780;6.084;2023-04-24T06:07:23;6.10;;;5.50;;
9188;SDS011;34313;50.780;6.084;2023-04-24T06:09:51;8.50;;;6.13;;
9188;SDS011;34313;50.780;6.084;2023-04-24T06:12:17;7.73;;;5.17;;
9188;SDS011;34313;50.780;6.084;2023-04-24T06:14:42;7.70;;;5.53;;
9188;SDS011;34313;50.780;6.084;2023-04-24T06:17:07;6.23;;;5.63;;
9188;SDS011;34313;50.780;6.084;2023-04-24T06:19:33;12.40;;;6.13;;
9188;SDS011;34313;50.780;6.084;2023-04-24T06:21:58;6.43;;;5.40;;
9188;SDS011;34313;50.780;6.084;2023-04-24T06:24:26;7.10;;;5.20;;
9188;SDS011;34313;50.780;6.084;2023-04-24T06:26:52;6.80;;;4.97;;
9188;SDS011;34313;50.780;6.084;2023-04-24T06:29:17;6.73;;;4.87;;
9188;SDS011;34313;50.780;6.084;2023-04-24T06:31:43;5.03;;;4.40;;
9188;SDS011;34313;50.780;6.084;2023-04-24T06:34:08;7.03;;;4.53;;
9188;SDS011;34313;50.780;6.084;2023-04-24T06:36:33;5.13;;;4.23;;
9188;SDS011;34313;50.780;6.084;2023-04-24T06:39:00;8.67;;;4.80;;
9188;SDS011;34313;50.780;6.084;2023-04-24T06:41:25;7.93;;;4.10;;
9188;SDS011;34313;50.780;6.084;2023-04-24T06:43:50;5.30;;;3.87;;
9188;SDS011;34313;50.780;6.084;2023-04-24T06:46:16;4.23;;;3.07;;
9188;SDS011;34313;50.780;6.084;2023-04-24T06:48:41;6.20;;;3.07;;
9188;SDS011;34313;50.780;6.084;2023-04-24T06:51:06;5.20;;;3.60;;
9188;SDS011;34313;50.780;6.084;2023-04-24T06:53:32;4.30;;;3.43;;
9188;SDS011;34313;50.780;6.084;2023-04-24T06:55:57;5.20;;;3.23;;
9188;SDS011;34313;50.780;6.084;2023-04-24T06:58:24;3.70;;;3.17;;
9188;SDS011;34313;50.780;6.084;2023-04-24T07:00:50;3.47;;;3.17;;
9188;SDS011;34313;50.780;6.084;2023-04-24T07:03:15;3.73;;;2.83;;
9188;SDS011;34313;50.780;6.084;2023-04-24T07:05:40;3.57;;;3.23;;
9188;SDS011;34313;50.780;6.084;2023-04-24T07:08:06;4.20;;;3.23;;
9188;SDS011;34313;50.780;6.084;2023-04-24T07:10:32;3.30;;;2.80;;
9188;SDS011;34313;50.780;6.084;2023-04-24T07:12:59;4.13;;;3.67;;
9188;SDS011;34313;50.780;6.084;2023-04-24T07:15:24;4.47;;;3.23;;
9188;SDS011;34313;50.780;6.084;2023-04-24T07:17:50;5.90;;;3.47;;
9188;SDS011;34313;50.780;6.084;2023-04-24T07:20:15;6.70;;;3.50;;
9188;SDS011;34313;50.780;6.084;2023-04-24T07:22:40;6.23;;;3.70;;
9188;SDS011;34313;50.780;6.084;2023-04-24T07:25:06;6.27;;;4.73;;
9188;SDS011;34313;50.780;6.084;2023-04-24T07:27:31;6.00;;;4.23;;
9188;SDS011;34313;50.780;6.084;2023-04-24T07:29:57;6.43;;;4.67;;
9188;SDS011;34313;50.780;6.084;2023-04-24T07:32:22;8.90;;;4.67;;
9188;SDS011;34313;50.780;6.084;2023-04-24T07:34:47;5.27;;;4.20;;
9188;SDS011;34313;50.780;6.084;2023-04-24T07:37:13;4.37;;;3.53;;
9188;SDS011;34313;50.780;6.084;2023-04-24T07:39:38;5.40;;;3.37;;
9188;SDS011;34313;50.780;6.084;2023-04-24T07:42:03;6.17;;;4.30;;
9188;SDS011;34313;50.780;6.084;2023-04-24T07:44:29;7.57;;;4.30;;
9188;SDS011;34313;50.780;6.084;2023-04-24T07:46:54;4.80;;;4.10;;
9188;SDS011;34313;50.780;6.084;2023-04-24T07:49:20;8.87;;;5.07;;
9188;SDS011;34313;50.780;6.084;2023-04-24T07:51:46;8.80;;;4.83;;
9188;SDS011;34313;50.780;6.084;2023-04-24T07:54:11;8.10;;;5.30;;
9188;SDS011;34313;50.780;6.084;2023-04-24T07:56:36;7.77;;;5.30;;
9188;SDS011;34313;50.780;6.084;2023-04-24T07:59:04;10.87;;;6.10;;
9188;SDS011;34313;50.780;6.084;2023-04-24T08:01:29;12.90;;;6.23;;
9188;SDS011;34313;50.780;6.084;2023-04-24T08:03:55;12.27;;;6.53;;
9188;SDS011;34313;50.780;6.084;2023-04-24T08:06:20;10.37;;;6.07;;
9188;SDS011;34313;50.780;6.084;2023-04-24T08:08:46;8.15;;;6.30;;
9188;SDS011;34313;50.780;6.084;2023-04-24T08:11:11;7.10;;;5.90;;
9188;SDS011;34313;50.780;6.084;2023-04-24T08:13:37;7.40;;;5.43;;
9188;SDS011;34313;50.780;6.084;2023-04-24T08:16:02;9.20;;;6.30;;
9188;SDS011;34313;50.780;6.084;2023-04-24T08:18:27;7.57;;;5.90;;
9188;SDS011;34313;50.780;6.084;2023-04-24T08:20:53;7.17;;;5.83;;
9188;SDS011;34313;50.780;6.084;2023-04-24T08:23:18;5.93;;;5.33;;
9188;SDS011;34313;50.780;6.084;2023-04-24T08:25:43;6.67;;;5.10;;
9188;SDS011;34313;50.780;6.084;2023-04-24T08:28:09;9.83;;;6.13;;
9188;SDS011;34313;50.780;6.084;2023-04-24T08:30:35;8.40;;;5.80;;
9188;SDS011;34313;50.780;6.084;2023-04-24T08:33:01;6.50;;;5.50;;
9188;SDS011;34313;50.780;6.084;2023-04-24T08:35:26;7.60;;;4.93;;
9188;SDS011;34313;50.780;6.084;2023-04-24T08:37:52;8.40;;;5.27;;
9188;SDS011;34313;50.780;6.084;2023-04-24T08:40:18;7.67;;;4.80;;
9188;SDS011;34313;50.780;6.084;2023-04-24T08:42:53;7.33;;;5.23;;
9188;SDS011;34313;50.780;6.084;2023-04-24T08:45:21;7.60;;;4.80;;
9188;SDS011;34313;50.780;6.084;2023-04-24T08:47:47;5.53;;;4.60;;
9188;SDS011;34313;50.780;6.084;2023-04-24T08:50:14;9.57;;;5.03;;
9188;SDS011;34313;50.780;6.084;2023-04-24T08:52:40;5.57;;;4.73;;
9188;SDS011;34313;50.780;6.084;2023-04-24T08:55:06;7.80;;;5.37;;
9188;SDS011;34313;50.780;6.084;2023-04-24T08:57:32;7.47;;;5.60;;
9188;SDS011;34313;50.780;6.084;2023-04-24T08:59:58;10.50;;;5.87;;
9188;SDS011;34313;50.780;6.084;2023-04-24T09:02:25;8.93;;;6.00;;
9188;SDS011;34313;50.780;6.084;2023-04-24T09:04:51;13.13;;;7.23;;
9188;SDS011;34313;50.780;6.084;2023-04-24T09:07:17;10.97;;;7.40;;
9188;SDS011;34313;50.780;6.084;2023-04-24T09:09:44;12.80;;;7.33;;
9188;SDS011;34313;50.780;6.084;2023-04-24T09:12:10;11.90;;;8.13;;
9188;SDS011;34313;50.780;6.084;2023-04-24T09:14:36;12.03;;;6.90;;
9188;SDS011;34313;50.780;6.084;2023-04-24T09:17:07;9.20;;;6.83;;
9188;SDS011;34313;50.780;6.084;2023-04-24T09:19:33;11.00;;;7.67;;
9188;SDS011;34313;50.780;6.084;2023-04-24T09:21:58;10.23;;;6.70;;
9188;SDS011;34313;50.780;6.084;2023-04-24T09:24:23;12.57;;;6.67;;
9188;SDS011;34313;50.780;6.084;2023-04-24T09:26:49;15.90;;;8.80;;
9188;SDS011;34313;50.780;6.084;2023-04-24T09:29:26;19.33;;;8.00;;
9188;SDS011;34313;50.780;6.084;2023-04-24T09:31:52;12.23;;;7.00;;
9188;SDS011;34313;50.780;6.084;2023-04-24T09:34:21;15.50;;;6.83;;
9188;SDS011;34313;50.780;6.084;2023-04-24T09:36:48;11.10;;;7.20;;
9188;SDS011;34313;50.780;6.084;2023-04-24T09:39:14;9.47;;;6.10;;
9188;SDS011;34313;50.780;6.084;2023-04-24T09:41:44;11.70;;;7.23;;
9188;SDS011;34313;50.780;6.084;2023-04-24T09:44:22;14.48;;;6.60;;
9188;SDS011;34313;50.780;6.084;2023-04-24T09:49:21;12.23;;;6.30;;
9188;SDS011;34313;50.780;6.084;2023-04-24T09:51:50;8.67;;;5.93;;
9188;SDS011;34313;50.780;6.084;2023-04-24T09:54:17;12.80;;;5.73;;
9188;SDS011;34313;50.780;6.084;2023-04-24T09:56:46;14.30;;;6.10;;
9188;SDS011;34313;50.780;6.084;2023-04-24T09:59:13;8.47;;;5.07;;
9188;SDS011;34313;50.780;6.084;2023-04-24T10:01:40;13.20;;;5.10;;
9188;SDS011;34313;50.780;6.084;2023-04-24T10:04:16;10.90;;;5.17;;
9188;SDS011;34313;50.780;6.084;2023-04-24T10:06:42;9.87;;;4.13;;
9188;SDS011;34313;50.780;6.084;2023-04-24T10:09:08;7.30;;;3.67;;
9188;SDS011;34313;50.780;6.084;2023-04-24T10:11:35;8.63;;;4.13;;
9188;SDS011;34313;50.780;6.084;2023-04-24T10:14:01;9.77;;;3.30;;
9188;SDS011;34313;50.780;6.084;2023-04-24T10:16:27;7.87;;;3.50;;
9188;SDS011;34313;50.780;6.084;2023-04-24T10:18:53;9.37;;;4.10;;
9188;SDS011;34313;50.780;6.084;2023-04-24T10:21:19;7.27;;;3.77;;
9188;SDS011;34313;50.780;6.084;2023-04-24T10:23:45;5.73;;;3.47;;
9188;SDS011;34313;50.780;6.084;2023-04-24T10:26:12;10.10;;;4.10;;
9188;SDS011;34313;50.780;6.084;2023-04-24T10:28:44;7.10;;;4.13;;
9188;SDS011;34313;50.780;6.084;2023-04-24T10:31:10;9.43;;;3.70;;
9188;SDS011;34313;50.780;6.084;2023-04-24T10:33:37;11.23;;;4.20;;
9188;SDS011;34313;50.780;6.084;2023-04-24T10:36:04;10.37;;;4.53;;
9188;SDS011;34313;50.780;6.084;2023-04-24T10:38:29;10.60;;;5.77;;
9188;SDS011;34313;50.780;6.084;2023-04-24T10:41:11;6.83;;;4.53;;
9188;SDS011;34313;50.780;6.084;2023-04-24T10:43:44;10.83;;;4.23;;
9188;SDS011;34313;50.780;6.084;2023-04-24T10:46:10;8.33;;;5.20;;
9188;SDS011;34313;50.780;6.084;2023-04-24T10:48:44;8.50;;;4.90;;
9188;SDS011;34313;50.780;6.084;2023-04-24T10:51:18;7.77;;;4.47;;
9188;SDS011;34313;50.780;6.084;2023-04-24T10:53:47;9.77;;;4.77;;
9188;SDS011;34313;50.780;6.084;2023-04-24T10:56:15;11.63;;;5.53;;
9188;SDS011;34313;50.780;6.084;2023-04-24T10:58:42;10.80;;;5.90;;
9188;SDS011;34313;50.780;6.084;2023-04-24T11:01:22;11.27;;;6.33;;
9188;SDS011;34313;50.780;6.084;2023-04-24T11:03:50;13.00;;;5.70;;
9188;SDS011;34313;50.780;6.084;2023-04-24T11:06:28;12.33;;;5.70;;
9188;SDS011;34313;50.780;6.084;2023-04-24T11:09:04;14.33;;;6.80;;
9188;SDS011;34313;50.780;6.084;2023-04-24T11:11:31;15.83;;;7.30;;
9188;SDS011;34313;50.780;6.084;2023-04-24T11:16:26;12.10;;;7.17;;
9188;SDS011;34313;50.780;6.084;2023-04-24T11:19:02;13.57;;;6.77;;
9188;SDS011;34313;50.780;6.084;2023-04-24T11:21:39;12.37;;;6.20;;
9188;SDS011;34313;50.780;6.084;2023-04-24T11:27:13;13.57;;;6.40;;
9188;SDS011;34313;50.780;6.084;2023-04-24T11:29:41;8.23;;;5.63;;
9188;SDS011;34313;50.780;6.084;2023-04-24T11:32:22;24.33;;;13.20;;
9188;SDS011;34313;50.780;6.084;2023-04-24T11:35:01;18.43;;;6.90;;
9188;SDS011;34313;50.780;6.084;2023-04-24T11:40:01;10.23;;;5.23;;
9188;SDS011;34313;50.780;6.084;2023-04-24T11:42:28;14.10;;;5.43;;
9188;SDS011;34313;50.780;6.084;2023-04-24T11:44:59;8.27;;;4.20;;
9188;SDS011;34313;50.780;6.084;2023-04-24T11:47:28;8.83;;;4.37;;
9188;SDS011;34313;50.780;6.084;2023-04-24T11:49:55;7.40;;;4.30;;
9188;SDS011;34313;50.780;6.084;2023-04-24T11:52:20;11.10;;;4.40;;
9188;SDS011;34313;50.780;6.084;2023-04-24T11:54:49;6.80;;;5.03;;
9188;SDS011;34313;50.780;6.084;2023-04-24T11:57:15;10.70;;;5.37;;
9188;SDS011;34313;50.780;6.084;2023-04-24T11:59:41;12.70;;;5.20;;
9188;SDS011;34313;50.780;6.084;2023-04-24T12:02:07;9.17;;;4.90;;
9188;SDS011;34313;50.780;6.084;2023-04-24T12:04:41;12.20;;;4.87;;
9188;SDS011;34313;50.780;6.084;2023-04-24T12:07:07;10.63;;;4.97;;
9188;SDS011;34313;50.780;6.084;2023-04-24T12:09:48;8.10;;;4.63;;
9188;SDS011;34313;50.780;6.084;2023-04-24T12:12:20;6.27;;;3.77;;
9188;SDS011;34313;50.780;6.084;2023-04-24T12:14:49;12.63;;;4.50;;
9188;SDS011;34313;50.780;6.084;2023-04-24T12:17:17;6.97;;;4.50;;
9188;SDS011;34313;50.780;6.084;2023-04-24T12:19:46;7.80;;;4.63;;
9188;SDS011;34313;50.780;6.084;2023-04-24T12:22:12;12.27;;;4.93;;
9188;SDS011;34313;50.780;6.084;2023-04-24T12:27:28;4.90;;;4.40;;
9188;SDS011;34313;50.780;6.084;2023-04-24T12:29:56;11.53;;;5.20;;
9188;SDS011;34313;50.780;6.084;2023-04-24T12:32:22;8.00;;;3.97;;
9188;SDS011;34313;50.780;6.084;2023-04-24T12:34:49;8.47;;;4.37;;
9188;SDS011;34313;50.780;6.084;2023-04-24T12:37:15;8.57;;;4.30;;
9188;SDS011;34313;50.780;6.084;2023-04-24T12:39:44;6.47;;;4.50;;
9188;SDS011;34313;50.780;6.084;2023-04-24T12:42:26;12.00;;;4.43;;
9188;SDS011;34313;50.780;6.084;2023-04-24T12:44:57;7.23;;;4.20;;
9188;SDS011;34313;50.780;6.084;2023-04-24T12:47:24;6.57;;;4.50;;
9188;SDS011;34313;50.780;6.084;2023-04-24T12:49:50;10.60;;;5.50;;
9188;SDS011;34313;50.780;6.084;2023-04-24T12:52:17;11.23;;;4.47;;
9188;SDS011;34313;50.780;6.084;2023-04-24T12:54:45;13.87;;;5.53;;
9188;SDS011;34313;50.780;6.084;2023-04-24T12:57:11;9.93;;;4.70;;
9188;SDS011;34313;50.780;6.084;2023-04-24T12:59:36;6.93;;;4.63;;
9188;SDS011;34313;50.780;6.084;2023-04-24T13:02:01;7.90;;;4.23;;
9188;SDS011;34313;50.780;6.084;2023-04-24T13:04:27;9.70;;;4.07;;
9188;SDS011;34313;50.780;6.084;2023-04-24T13:06:53;5.97;;;4.00;;
9188;SDS011;34313;50.780;6.084;2023-04-24T13:09:18;10.20;;;4.60;;
9188;SDS011;34313;50.780;6.084;2023-04-24T13:11:43;6.37;;;4.20;;
9188;SDS011;34313;50.780;6.084;2023-04-24T13:14:08;14.13;;;4.87;;
9188;SDS011;34313;50.780;6.084;2023-04-24T13:16:34;10.33;;;4.80;;
9188;SDS011;34313;50.780;6.084;2023-04-24T13:18:59;12.00;;;4.87;;
9188;SDS011;34313;50.780;6.084;2023-04-24T13:21:25;9.60;;;4.10;;
9188;SDS011;34313;50.780;6.084;2023-04-24T13:23:51;9.40;;;4.17;;
9188;SDS011;34313;50.780;6.084;2023-04-24T13:26:16;8.40;;;4.33;;
9188;SDS011;34313;50.780;6.084;2023-04-24T13:28:42;8.30;;;4.30;;
9188;SDS011;34313;50.780;6.084;2023-04-24T13:31:07;10.90;;;4.33;;
9188;SDS011;34313;50.780;6.084;2023-04-24T13:33:32;7.73;;;4.30;;
9188;SDS011;34313;50.780;6.084;2023-04-24T13:35:58;11.53;;;5.40;;
9188;SDS011;34313;50.780;6.084;2023-04-24T13:38:23;8.50;;;4.90;;
9188;SDS011;34313;50.780;6.084;2023-04-24T13:40:48;10.80;;;4.97;;
9188;SDS011;34313;50.780;6.084;2023-04-24T13:43:14;8.80;;;4.43;;
9188;SDS011;34313;50.780;6.084;2023-04-24T13:45:39;8.53;;;4.50;;
9188;SDS011;34313;50.780;6.084;2023-04-24T13:48:04;9.03;;;4.30;;
9188;SDS011;34313;50.780;6.084;2023-04-24T13:50:30;7.20;;;4.60;;
9188;SDS011;34313;50.780;6.084;2023-04-24T13:52:55;9.57;;;4.10;;
9188;SDS011;34313;50.780;6.084;2023-04-24T13:55:21;9.77;;;4.40;;
9188;SDS011;34313;50.780;6.084;2023-04-24T13:57:47;7.97;;;4.60;;
9188;SDS011;34313;50.780;6.084;2023-04-24T14:00:12;10.53;;;4.90;;
9188;SDS011;34313;50.780;6.084;2023-04-24T14:02:38;5.80;;;4.43;;
9188;SDS011;34313;50.780;6.084;2023-04-24T14:05:03;7.23;;;4.00;;
9188;SDS011;34313;50.780;6.084;2023-04-24T14:07:29;7.53;;;4.40;;
9188;SDS011;34313;50.780;6.084;2023-04-24T14:09:55;6.53;;;4.47;;
9188;SDS011;34313;50.780;6.084;2023-04-24T14:12:20;5.83;;;5.00;;
9188;SDS011;34313;50.780;6.084;2023-04-24T14:14:46;5.93;;;4.57;;
9188;SDS011;34313;50.780;6.084;2023-04-24T14:17:13;6.40;;;4.77;;
9188;SDS011;34313;50.780;6.084;2023-04-24T14:19:38;8.67;;;4.67;;
9188;SDS011;34313;50.780;6.084;2023-04-24T14:22:04;8.27;;;4.60;;
9188;SDS011;34313;50.780;6.084;2023-04-24T14:24:29;5.20;;;4.50;;
9188;SDS011;34313;50.780;6.084;2023-04-24T14:26:54;6.77;;;4.20;;
9188;SDS011;34313;50.780;6.084;2023-04-24T14:29:21;7.87;;;4.60;;
9188;SDS011;34313;50.780;6.084;2023-04-24T14:31:47;9.60;;;5.00;;
9188;SDS011;34313;50.780;6.084;2023-04-24T14:34:13;11.03;;;4.43;;
9188;SDS011;34313;50.780;6.084;2023-04-24T14:36:39;6.83;;;3.90;;
9188;SDS011;34313;50.780;6.084;2023-04-24T14:39:04;6.93;;;4.27;;
9188;SDS011;34313;50.780;6.084;2023-04-24T14:41:31;6.23;;;4.00;;
9188;SDS011;34313;50.780;6.084;2023-04-24T14:44:00;9.40;;;4.87;;
9188;SDS011;34313;50.780;6.084;2023-04-24T14:46:31;8.03;;;4.70;;
9188;SDS011;34313;50.780;6.084;2023-04-24T14:48:57;8.57;;;4.13;;
9188;SDS011;34313;50.780;6.084;2023-04-24T14:51:22;8.40;;;4.50;;
9188;SDS011;34313;50.780;6.084;2023-04-24T14:53:48;9.33;;;4.10;;
9188;SDS011;34313;50.780;6.084;2023-04-24T14:56:15;6.70;;;4.40;;
9188;SDS011;34313;50.780;6.084;2023-04-24T14:58:40;6.40;;;4.10;;
9188;SDS011;34313;50.780;6.084;2023-04-24T15:01:06;6.00;;;4.10;;
9188;SDS011;34313;50.780;6.084;2023-04-24T15:03:31;6.00;;;4.17;;